sensor_id;sensor_type;location;lat;lon;timestamp;P1;durP1;ratioP1;P2;durP2;ratioP2
21519;SDS011;10921;53.614;9.882;2023-06-19T00:00:28;14.65;;;13.45;;
21519;SDS011;10921;53.614;9.882;2023-06-19T00:02:56;15.35;;;13.98;;
21519;SDS011;10921;53.614;9.882;2023-06-19T00:05:23;15.48;;;14.00;;
21519;SDS011;10921;53.614;9.882;2023-06-19T00:07:51;15.45;;;14.15;;
21519;SDS011;10921;53.614;9.882;2023-06-19T00:10:18;15.52;;;14.13;;
21519;SDS011;10921;53.614;9.882;2023-06-19T00:12:47;16.48;;;14.98;;
21519;SDS011;10921;53.614;9.882;2023-06-19T00:15:14;17.42;;;15.82;;
21519;SDS011;10921;53.614;9.882;2023-06-19T00:17:41;16.35;;;14.88;;
21519;SDS011;10921;53.614;9.882;2023-06-19T00:20:08;16.80;;;15.30;;
21519;SDS011;10921;53.614;9.882;2023-06-19T00:22:35;16.92;;;15.32;;
21519;SDS011;10921;53.614;9.882;2023-06-19T00:25:02;16.15;;;14.75;;
21519;SDS011;10921;53.614;9.882;2023-06-19T00:27:29;16.35;;;14.70;;
21519;SDS011;10921;53.614;9.882;2023-06-19T00:29:55;16.42;;;14.95;;
21519;SDS011;10921;53.614;9.882;2023-06-19T00:32:28;17.05;;;15.35;;
21519;SDS011;10921;53.614;9.882;2023-06-19T00:34:55;16.30;;;14.80;;
21519;SDS011;10921;53.614;9.882;2023-06-19T00:37:22;15.85;;;14.35;;
21519;SDS011;10921;53.614;9.882;2023-06-19T00:39:49;16.02;;;14.50;;
21519;SDS011;10921;53.614;9.882;2023-06-19T00:42:15;15.68;;;14.30;;
21519;SDS011;10921;53.614;9.882;2023-06-19T00:44:42;16.20;;;14.70;;
21519;SDS011;10921;53.614;9.882;2023-06-19T00:47:09;16.10;;;14.52;;
21519;SDS011;10921;53.614;9.882;2023-06-19T00:49:36;16.23;;;14.73;;
21519;SDS011;10921;53.614;9.882;2023-06-19T00:52:03;15.95;;;14.57;;
21519;SDS011;10921;53.614;9.882;2023-06-19T00:54:30;15.70;;;14.23;;
21519;SDS011;10921;53.614;9.882;2023-06-19T00:56:57;16.60;;;14.90;;
21519;SDS011;10921;53.614;9.882;2023-06-19T00:59:24;15.10;;;13.70;;
21519;SDS011;10921;53.614;9.882;2023-06-19T01:01:50;16.77;;;15.18;;
21519;SDS011;10921;53.614;9.882;2023-06-19T01:04:17;16.80;;;15.20;;
21519;SDS011;10921;53.614;9.882;2023-06-19T01:09:28;16.15;;;14.60;;
21519;SDS011;10921;53.614;9.882;2023-06-19T01:12:04;16.38;;;14.88;;
21519;SDS011;10921;53.614;9.882;2023-06-19T01:14:36;16.75;;;14.65;;
21519;SDS011;10921;53.614;9.882;2023-06-19T01:17:07;15.45;;;14.13;;
21519;SDS011;10921;53.614;9.882;2023-06-19T01:19:34;17.35;;;15.55;;
21519;SDS011;10921;53.614;9.882;2023-06-19T01:22:02;17.27;;;15.63;;
21519;SDS011;10921;53.614;9.882;2023-06-19T01:24:30;18.02;;;15.25;;
21519;SDS011;10921;53.614;9.882;2023-06-19T01:26:57;16.83;;;15.32;;
21519;SDS011;10921;53.614;9.882;2023-06-19T01:29:23;17.33;;;15.13;;
21519;SDS011;10921;53.614;9.882;2023-06-19T01:31:52;16.55;;;14.98;;
21519;SDS011;10921;53.614;9.882;2023-06-19T01:34:24;16.38;;;14.88;;
21519;SDS011;10921;53.614;9.882;2023-06-19T01:36:53;21.10;;;15.25;;
21519;SDS011;10921;53.614;9.882;2023-06-19T01:39:23;16.35;;;14.85;;
21519;SDS011;10921;53.614;9.882;2023-06-19T01:41:51;16.95;;;15.27;;
21519;SDS011;10921;53.614;9.882;2023-06-19T01:44:20;17.50;;;15.20;;
21519;SDS011;10921;53.614;9.882;2023-06-19T01:46:47;16.73;;;15.13;;
21519;SDS011;10921;53.614;9.882;2023-06-19T01:49:18;16.45;;;15.05;;
21519;SDS011;10921;53.614;9.882;2023-06-19T01:51:44;17.63;;;15.93;;
21519;SDS011;10921;53.614;9.882;2023-06-19T01:54:11;17.08;;;15.32;;
21519;SDS011;10921;53.614;9.882;2023-06-19T01:56:38;16.98;;;15.25;;
21519;SDS011;10921;53.614;9.882;2023-06-19T01:59:04;16.27;;;14.68;;
21519;SDS011;10921;53.614;9.882;2023-06-19T02:01:31;17.27;;;15.63;;
21519;SDS011;10921;53.614;9.882;2023-06-19T02:03:58;16.48;;;14.82;;
21519;SDS011;10921;53.614;9.882;2023-06-19T02:06:24;15.98;;;14.57;;
21519;SDS011;10921;53.614;9.882;2023-06-19T02:08:51;16.05;;;14.75;;
21519;SDS011;10921;53.614;9.882;2023-06-19T02:11:17;17.23;;;15.63;;
21519;SDS011;10921;53.614;9.882;2023-06-19T02:13:44;16.15;;;14.73;;
21519;SDS011;10921;53.614;9.882;2023-06-19T02:16:10;17.55;;;15.77;;
21519;SDS011;10921;53.614;9.882;2023-06-19T02:18:37;16.73;;;15.23;;
21519;SDS011;10921;53.614;9.882;2023-06-19T02:21:03;16.92;;;15.38;;
21519;SDS011;10921;53.614;9.882;2023-06-19T02:23:30;18.45;;;15.70;;
21519;SDS011;10921;53.614;9.882;2023-06-19T02:25:57;17.05;;;15.50;;
21519;SDS011;10921;53.614;9.882;2023-06-19T02:28:24;17.88;;;15.80;;
21519;SDS011;10921;53.614;9.882;2023-06-19T02:30:50;18.55;;;15.63;;
21519;SDS011;10921;53.614;9.882;2023-06-19T02:33:21;17.00;;;15.43;;
21519;SDS011;10921;53.614;9.882;2023-06-19T02:35:48;17.55;;;15.80;;
21519;SDS011;10921;53.614;9.882;2023-06-19T02:38:14;17.45;;;15.75;;
21519;SDS011;10921;53.614;9.882;2023-06-19T02:40:41;16.83;;;15.20;;
21519;SDS011;10921;53.614;9.882;2023-06-19T02:43:07;17.05;;;15.35;;
21519;SDS011;10921;53.614;9.882;2023-06-19T02:45:34;17.73;;;15.15;;
21519;SDS011;10921;53.614;9.882;2023-06-19T02:48:00;17.55;;;15.98;;
21519;SDS011;10921;53.614;9.882;2023-06-19T02:50:27;18.17;;;16.38;;
21519;SDS011;10921;53.614;9.882;2023-06-19T02:52:53;18.27;;;16.38;;
21519;SDS011;10921;53.614;9.882;2023-06-19T02:55:20;18.13;;;16.33;;
21519;SDS011;10921;53.614;9.882;2023-06-19T02:57:46;22.13;;;16.70;;
21519;SDS011;10921;53.614;9.882;2023-06-19T03:00:14;17.63;;;16.02;;
21519;SDS011;10921;53.614;9.882;2023-06-19T03:02:40;19.15;;;16.80;;
21519;SDS011;10921;53.614;9.882;2023-06-19T03:05:10;18.15;;;16.55;;
21519;SDS011;10921;53.614;9.882;2023-06-19T03:07:40;18.00;;;16.10;;
21519;SDS011;10921;53.614;9.882;2023-06-19T03:10:07;18.33;;;16.73;;
21519;SDS011;10921;53.614;9.882;2023-06-19T03:12:34;17.52;;;15.85;;
21519;SDS011;10921;53.614;9.882;2023-06-19T03:15:00;20.05;;;16.88;;
21519;SDS011;10921;53.614;9.882;2023-06-19T03:17:27;18.58;;;16.92;;
21519;SDS011;10921;53.614;9.882;2023-06-19T03:19:54;18.80;;;17.10;;
21519;SDS011;10921;53.614;9.882;2023-06-19T03:22:20;18.13;;;16.58;;
21519;SDS011;10921;53.614;9.882;2023-06-19T03:24:47;18.02;;;16.52;;
21519;SDS011;10921;53.614;9.882;2023-06-19T03:27:14;18.63;;;16.65;;
21519;SDS011;10921;53.614;9.882;2023-06-19T03:29:41;18.80;;;17.00;;
21519;SDS011;10921;53.614;9.882;2023-06-19T03:32:07;18.52;;;16.85;;
21519;SDS011;10921;53.614;9.882;2023-06-19T03:34:34;18.08;;;16.50;;
21519;SDS011;10921;53.614;9.882;2023-06-19T03:37:01;18.58;;;16.98;;
21519;SDS011;10921;53.614;9.882;2023-06-19T03:39:27;19.50;;;17.42;;
21519;SDS011;10921;53.614;9.882;2023-06-19T03:41:54;21.10;;;17.40;;
21519;SDS011;10921;53.614;9.882;2023-06-19T03:44:20;18.55;;;16.92;;
21519;SDS011;10921;53.614;9.882;2023-06-19T03:46:47;18.55;;;16.77;;
21519;SDS011;10921;53.614;9.882;2023-06-19T03:49:13;18.65;;;17.05;;
21519;SDS011;10921;53.614;9.882;2023-06-19T03:51:40;18.73;;;16.98;;
21519;SDS011;10921;53.614;9.882;2023-06-19T03:54:06;17.85;;;16.33;;
21519;SDS011;10921;53.614;9.882;2023-06-19T03:56:34;19.02;;;17.08;;
21519;SDS011;10921;53.614;9.882;2023-06-19T03:59:00;18.77;;;17.10;;
21519;SDS011;10921;53.614;9.882;2023-06-19T04:01:26;19.23;;;17.38;;
21519;SDS011;10921;53.614;9.882;2023-06-19T04:03:53;18.92;;;17.13;;
21519;SDS011;10921;53.614;9.882;2023-06-19T04:06:20;18.55;;;16.75;;
21519;SDS011;10921;53.614;9.882;2023-06-19T04:08:46;19.00;;;17.02;;
21519;SDS011;10921;53.614;9.882;2023-06-19T04:11:13;19.08;;;17.27;;
21519;SDS011;10921;53.614;9.882;2023-06-19T04:13:40;17.98;;;16.48;;
21519;SDS011;10921;53.614;9.882;2023-06-19T04:16:06;20.13;;;18.05;;
21519;SDS011;10921;53.614;9.882;2023-06-19T04:18:33;18.50;;;17.00;;
21519;SDS011;10921;53.614;9.882;2023-06-19T04:21:00;18.15;;;16.60;;
21519;SDS011;10921;53.614;9.882;2023-06-19T04:23:26;19.10;;;17.40;;
21519;SDS011;10921;53.614;9.882;2023-06-19T04:25:53;18.65;;;16.75;;
21519;SDS011;10921;53.614;9.882;2023-06-19T04:28:19;19.38;;;17.23;;
21519;SDS011;10921;53.614;9.882;2023-06-19T04:30:46;19.10;;;17.30;;
21519;SDS011;10921;53.614;9.882;2023-06-19T04:33:13;19.52;;;17.33;;
21519;SDS011;10921;53.614;9.882;2023-06-19T04:35:39;19.38;;;17.58;;
21519;SDS011;10921;53.614;9.882;2023-06-19T04:38:07;19.95;;;17.88;;
21519;SDS011;10921;53.614;9.882;2023-06-19T04:40:34;19.65;;;17.75;;
21519;SDS011;10921;53.614;9.882;2023-06-19T04:43:01;22.50;;;17.83;;
21519;SDS011;10921;53.614;9.882;2023-06-19T04:45:29;21.63;;;18.00;;
21519;SDS011;10921;53.614;9.882;2023-06-19T04:47:55;19.38;;;17.67;;
21519;SDS011;10921;53.614;9.882;2023-06-19T04:50:22;19.63;;;17.67;;
21519;SDS011;10921;53.614;9.882;2023-06-19T04:52:49;19.08;;;17.38;;
21519;SDS011;10921;53.614;9.882;2023-06-19T04:55:17;19.50;;;17.67;;
21519;SDS011;10921;53.614;9.882;2023-06-19T04:57:44;20.00;;;17.27;;
21519;SDS011;10921;53.614;9.882;2023-06-19T05:00:10;19.52;;;17.45;;
21519;SDS011;10921;53.614;9.882;2023-06-19T05:02:37;18.83;;;17.13;;
21519;SDS011;10921;53.614;9.882;2023-06-19T05:05:04;18.52;;;16.92;;
21519;SDS011;10921;53.614;9.882;2023-06-19T05:07:31;19.52;;;17.65;;
21519;SDS011;10921;53.614;9.882;2023-06-19T05:09:58;18.95;;;17.17;;
21519;SDS011;10921;53.614;9.882;2023-06-19T05:12:25;19.58;;;17.88;;
21519;SDS011;10921;53.614;9.882;2023-06-19T05:14:52;19.63;;;17.73;;
21519;SDS011;10921;53.614;9.882;2023-06-19T05:17:19;19.63;;;17.73;;
21519;SDS011;10921;53.614;9.882;2023-06-19T05:19:45;19.40;;;17.63;;
21519;SDS011;10921;53.614;9.882;2023-06-19T05:22:12;18.40;;;16.40;;
21519;SDS011;10921;53.614;9.882;2023-06-19T05:24:39;19.15;;;16.55;;
21519;SDS011;10921;53.614;9.882;2023-06-19T05:27:06;19.20;;;17.40;;
21519;SDS011;10921;53.614;9.882;2023-06-19T05:29:32;19.33;;;17.33;;
21519;SDS011;10921;53.614;9.882;2023-06-19T05:31:59;18.48;;;16.77;;
21519;SDS011;10921;53.614;9.882;2023-06-19T05:34:25;18.90;;;16.85;;
21519;SDS011;10921;53.614;9.882;2023-06-19T05:36:52;19.50;;;17.60;;
21519;SDS011;10921;53.614;9.882;2023-06-19T05:39:19;19.30;;;17.50;;
21519;SDS011;10921;53.614;9.882;2023-06-19T05:41:45;20.83;;;16.80;;
21519;SDS011;10921;53.614;9.882;2023-06-19T05:44:12;18.67;;;16.77;;
21519;SDS011;10921;53.614;9.882;2023-06-19T05:46:43;19.52;;;17.58;;
21519;SDS011;10921;53.614;9.882;2023-06-19T05:49:10;19.38;;;17.52;;
21519;SDS011;10921;53.614;9.882;2023-06-19T05:51:36;20.35;;;18.17;;
21519;SDS011;10921;53.614;9.882;2023-06-19T05:54:03;19.67;;;17.77;;
21519;SDS011;10921;53.614;9.882;2023-06-19T05:56:30;19.90;;;17.65;;
21519;SDS011;10921;53.614;9.882;2023-06-19T05:59:01;20.17;;;18.17;;
21519;SDS011;10921;53.614;9.882;2023-06-19T06:01:28;20.15;;;18.17;;
21519;SDS011;10921;53.614;9.882;2023-06-19T06:03:56;20.33;;;18.15;;
21519;SDS011;10921;53.614;9.882;2023-06-19T06:06:23;21.95;;;17.98;;
21519;SDS011;10921;53.614;9.882;2023-06-19T06:08:50;26.75;;;18.83;;
21519;SDS011;10921;53.614;9.882;2023-06-19T06:11:17;20.40;;;18.40;;
21519;SDS011;10921;53.614;9.882;2023-06-19T06:13:44;21.67;;;19.40;;
21519;SDS011;10921;53.614;9.882;2023-06-19T06:16:11;22.58;;;20.38;;
21519;SDS011;10921;53.614;9.882;2023-06-19T06:18:37;23.17;;;21.08;;
21519;SDS011;10921;53.614;9.882;2023-06-19T06:21:04;23.52;;;21.02;;
21519;SDS011;10921;53.614;9.882;2023-06-19T06:23:30;23.15;;;20.77;;
21519;SDS011;10921;53.614;9.882;2023-06-19T06:25:57;23.15;;;20.85;;
21519;SDS011;10921;53.614;9.882;2023-06-19T06:28:28;23.13;;;20.92;;
21519;SDS011;10921;53.614;9.882;2023-06-19T06:30:55;23.67;;;21.23;;
21519;SDS011;10921;53.614;9.882;2023-06-19T06:33:22;22.85;;;20.75;;
21519;SDS011;10921;53.614;9.882;2023-06-19T06:35:49;22.98;;;20.23;;
21519;SDS011;10921;53.614;9.882;2023-06-19T06:38:49;24.02;;;21.55;;
21519;SDS011;10921;53.614;9.882;2023-06-19T06:41:08;23.10;;;20.02;;
21519;SDS011;10921;53.614;9.882;2023-06-19T06:43:35;22.95;;;20.52;;
21519;SDS011;10921;53.614;9.882;2023-06-19T06:46:01;21.88;;;19.98;;
21519;SDS011;10921;53.614;9.882;2023-06-19T06:48:28;23.65;;;21.33;;
21519;SDS011;10921;53.614;9.882;2023-06-19T06:50:54;24.77;;;21.48;;
21519;SDS011;10921;53.614;9.882;2023-06-19T06:53:27;23.05;;;20.52;;
21519;SDS011;10921;53.614;9.882;2023-06-19T06:56:00;23.08;;;20.77;;
21519;SDS011;10921;53.614;9.882;2023-06-19T06:58:26;21.85;;;19.85;;
21519;SDS011;10921;53.614;9.882;2023-06-19T07:00:53;22.50;;;20.13;;
21519;SDS011;10921;53.614;9.882;2023-06-19T07:03:20;22.50;;;20.10;;
21519;SDS011;10921;53.614;9.882;2023-06-19T07:05:47;22.30;;;20.10;;
21519;SDS011;10921;53.614;9.882;2023-06-19T07:08:14;23.20;;;20.17;;
21519;SDS011;10921;53.614;9.882;2023-06-19T07:10:41;21.10;;;19.13;;
21519;SDS011;10921;53.614;9.882;2023-06-19T07:13:08;23.20;;;19.13;;
21519;SDS011;10921;53.614;9.882;2023-06-19T07:15:34;23.70;;;20.40;;
21519;SDS011;10921;53.614;9.882;2023-06-19T07:18:01;22.10;;;19.98;;
21519;SDS011;10921;53.614;9.882;2023-06-19T07:20:27;19.85;;;18.00;;
21519;SDS011;10921;53.614;9.882;2023-06-19T07:22:54;24.50;;;19.85;;
21519;SDS011;10921;53.614;9.882;2023-06-19T07:25:20;21.27;;;19.20;;
21519;SDS011;10921;53.614;9.882;2023-06-19T07:27:50;21.15;;;19.15;;
21519;SDS011;10921;53.614;9.882;2023-06-19T07:30:17;22.42;;;20.02;;
21519;SDS011;10921;53.614;9.882;2023-06-19T07:32:43;23.80;;;19.83;;
21519;SDS011;10921;53.614;9.882;2023-06-19T07:35:09;22.25;;;19.42;;
21519;SDS011;10921;53.614;9.882;2023-06-19T07:37:37;21.77;;;19.50;;
21519;SDS011;10921;53.614;9.882;2023-06-19T07:40:04;20.75;;;18.73;;
21519;SDS011;10921;53.614;9.882;2023-06-19T07:42:31;23.38;;;19.42;;
21519;SDS011;10921;53.614;9.882;2023-06-19T07:44:58;21.02;;;19.00;;
21519;SDS011;10921;53.614;9.882;2023-06-19T07:47:26;21.67;;;19.58;;
21519;SDS011;10921;53.614;9.882;2023-06-19T07:49:53;21.88;;;19.70;;
21519;SDS011;10921;53.614;9.882;2023-06-19T07:52:19;22.10;;;20.02;;
21519;SDS011;10921;53.614;9.882;2023-06-19T07:54:53;21.02;;;18.77;;
21519;SDS011;10921;53.614;9.882;2023-06-19T07:57:21;21.20;;;19.08;;
21519;SDS011;10921;53.614;9.882;2023-06-19T07:59:49;22.45;;;19.42;;
21519;SDS011;10921;53.614;9.882;2023-06-19T08:02:16;22.88;;;19.33;;
21519;SDS011;10921;53.614;9.882;2023-06-19T08:04:44;22.10;;;19.42;;
21519;SDS011;10921;53.614;9.882;2023-06-19T08:07:12;21.65;;;19.50;;
21519;SDS011;10921;53.614;9.882;2023-06-19T08:09:38;20.75;;;18.73;;
21519;SDS011;10921;53.614;9.882;2023-06-19T08:12:05;24.40;;;19.73;;
21519;SDS011;10921;53.614;9.882;2023-06-19T08:14:32;22.33;;;20.20;;
21519;SDS011;10921;53.614;9.882;2023-06-19T08:16:59;21.83;;;19.73;;
21519;SDS011;10921;53.614;9.882;2023-06-19T08:19:26;21.10;;;19.10;;
21519;SDS011;10921;53.614;9.882;2023-06-19T08:21:52;21.52;;;19.27;;
21519;SDS011;10921;53.614;9.882;2023-06-19T08:24:19;20.40;;;18.40;;
21519;SDS011;10921;53.614;9.882;2023-06-19T08:26:45;20.38;;;18.20;;
21519;SDS011;10921;53.614;9.882;2023-06-19T08:29:12;20.95;;;18.95;;
21519;SDS011;10921;53.614;9.882;2023-06-19T08:31:38;19.80;;;18.10;;
21519;SDS011;10921;53.614;9.882;2023-06-19T08:34:05;24.30;;;18.30;;
21519;SDS011;10921;53.614;9.882;2023-06-19T08:36:35;20.40;;;18.23;;
21519;SDS011;10921;53.614;9.882;2023-06-19T08:39:02;21.88;;;17.90;;
21519;SDS011;10921;53.614;9.882;2023-06-19T08:41:29;20.92;;;18.80;;
21519;SDS011;10921;53.614;9.882;2023-06-19T08:43:55;20.77;;;18.60;;
21519;SDS011;10921;53.614;9.882;2023-06-19T08:46:23;24.58;;;19.55;;
21519;SDS011;10921;53.614;9.882;2023-06-19T08:48:49;19.50;;;17.50;;
21519;SDS011;10921;53.614;9.882;2023-06-19T08:51:16;21.33;;;19.40;;
21519;SDS011;10921;53.614;9.882;2023-06-19T08:53:49;24.75;;;22.45;;
21519;SDS011;10921;53.614;9.882;2023-06-19T08:56:20;26.73;;;22.40;;
21519;SDS011;10921;53.614;9.882;2023-06-19T08:58:47;24.92;;;22.15;;
21519;SDS011;10921;53.614;9.882;2023-06-19T09:01:18;24.60;;;22.20;;
21519;SDS011;10921;53.614;9.882;2023-06-19T09:03:49;23.50;;;21.30;;
21519;SDS011;10921;53.614;9.882;2023-06-19T09:06:21;24.33;;;21.58;;
21519;SDS011;10921;53.614;9.882;2023-06-19T09:08:58;23.73;;;21.73;;
21519;SDS011;10921;53.614;9.882;2023-06-19T09:11:26;24.90;;;21.73;;
21519;SDS011;10921;53.614;9.882;2023-06-19T09:13:56;25.52;;;22.70;;
21519;SDS011;10921;53.614;9.882;2023-06-19T09:16:23;24.40;;;22.10;;
21519;SDS011;10921;53.614;9.882;2023-06-19T09:19:02;24.10;;;21.73;;
21519;SDS011;10921;53.614;9.882;2023-06-19T09:21:29;22.83;;;20.90;;
21519;SDS011;10921;53.614;9.882;2023-06-19T09:24:02;22.08;;;20.15;;
21519;SDS011;10921;53.614;9.882;2023-06-19T09:26:30;23.48;;;21.23;;
21519;SDS011;10921;53.614;9.882;2023-06-19T09:28:56;23.83;;;21.52;;
21519;SDS011;10921;53.614;9.882;2023-06-19T09:31:32;21.63;;;19.63;;
21519;SDS011;10921;53.614;9.882;2023-06-19T09:34:00;25.20;;;21.95;;
21519;SDS011;10921;53.614;9.882;2023-06-19T09:36:27;22.10;;;19.75;;
21519;SDS011;10921;53.614;9.882;2023-06-19T09:38:54;21.85;;;19.58;;
21519;SDS011;10921;53.614;9.882;2023-06-19T09:41:23;20.50;;;18.70;;
21519;SDS011;10921;53.614;9.882;2023-06-19T09:43:52;22.48;;;20.23;;
21519;SDS011;10921;53.614;9.882;2023-06-19T09:46:24;20.92;;;18.95;;
21519;SDS011;10921;53.614;9.882;2023-06-19T09:48:55;20.33;;;18.58;;
21519;SDS011;10921;53.614;9.882;2023-06-19T09:51:31;21.63;;;19.50;;
21519;SDS011;10921;53.614;9.882;2023-06-19T09:54:02;20.67;;;18.40;;
21519;SDS011;10921;53.614;9.882;2023-06-19T09:56:31;24.30;;;21.98;;
21519;SDS011;10921;53.614;9.882;2023-06-19T09:58:59;21.20;;;19.35;;
21519;SDS011;10921;53.614;9.882;2023-06-19T10:01:27;21.40;;;19.60;;
21519;SDS011;10921;53.614;9.882;2023-06-19T10:04:06;22.98;;;18.95;;
21519;SDS011;10921;53.614;9.882;2023-06-19T10:06:44;23.33;;;21.35;;
21519;SDS011;10921;53.614;9.882;2023-06-19T10:09:13;24.30;;;22.02;;
21519;SDS011;10921;53.614;9.882;2023-06-19T10:11:46;23.55;;;21.63;;
21519;SDS011;10921;53.614;9.882;2023-06-19T10:14:14;22.30;;;19.73;;
21519;SDS011;10921;53.614;9.882;2023-06-19T10:16:44;22.08;;;19.98;;
21519;SDS011;10921;53.614;9.882;2023-06-19T10:19:12;22.05;;;20.13;;
21519;SDS011;10921;53.614;9.882;2023-06-19T10:21:44;25.15;;;21.38;;
21519;SDS011;10921;53.614;9.882;2023-06-19T10:24:19;24.03;;;21.83;;
21519;SDS011;10921;53.614;9.882;2023-06-19T10:26:58;22.27;;;20.17;;
21519;SDS011;10921;53.614;9.882;2023-06-19T10:29:26;22.23;;;20.23;;
21519;SDS011;10921;53.614;9.882;2023-06-19T10:31:54;21.77;;;19.70;;
21519;SDS011;10921;53.614;9.882;2023-06-19T10:34:20;22.77;;;20.52;;
21519;SDS011;10921;53.614;9.882;2023-06-19T10:36:47;22.13;;;20.08;;
21519;SDS011;10921;53.614;9.882;2023-06-19T10:39:13;23.80;;;21.63;;
21519;SDS011;10921;53.614;9.882;2023-06-19T10:41:40;24.08;;;21.67;;
21519;SDS011;10921;53.614;9.882;2023-06-19T10:44:07;22.48;;;20.25;;
21519;SDS011;10921;53.614;9.882;2023-06-19T10:46:39;21.65;;;19.75;;
21519;SDS011;10921;53.614;9.882;2023-06-19T10:51:40;21.65;;;19.23;;
21519;SDS011;10921;53.614;9.882;2023-06-19T10:54:09;22.30;;;20.40;;
21519;SDS011;10921;53.614;9.882;2023-06-19T10:56:36;22.90;;;20.88;;
21519;SDS011;10921;53.614;9.882;2023-06-19T10:59:04;23.25;;;20.85;;
21519;SDS011;10921;53.614;9.882;2023-06-19T11:01:35;20.50;;;18.85;;
21519;SDS011;10921;53.614;9.882;2023-06-19T11:04:04;20.73;;;19.20;;
21519;SDS011;10921;53.614;9.882;2023-06-19T11:06:32;19.73;;;18.00;;
21519;SDS011;10921;53.614;9.882;2023-06-19T11:09:01;25.48;;;16.73;;
21519;SDS011;10921;53.614;9.882;2023-06-19T11:11:38;19.50;;;17.80;;
21519;SDS011;10921;53.614;9.882;2023-06-19T11:14:06;19.25;;;17.55;;
21519;SDS011;10921;53.614;9.882;2023-06-19T11:16:33;17.85;;;16.20;;
21519;SDS011;10921;53.614;9.882;2023-06-19T11:19:03;17.70;;;16.20;;
21519;SDS011;10921;53.614;9.882;2023-06-19T11:21:33;17.17;;;15.77;;
21519;SDS011;10921;53.614;9.882;2023-06-19T11:24:10;17.60;;;16.20;;
21519;SDS011;10921;53.614;9.882;2023-06-19T11:26:41;17.27;;;15.75;;
21519;SDS011;10921;53.614;9.882;2023-06-19T11:29:16;17.75;;;16.02;;
21519;SDS011;10921;53.614;9.882;2023-06-19T11:31:45;17.25;;;15.88;;
21519;SDS011;10921;53.614;9.882;2023-06-19T11:34:13;17.10;;;15.60;;
21519;SDS011;10921;53.614;9.882;2023-06-19T11:36:41;17.33;;;15.68;;
21519;SDS011;10921;53.614;9.882;2023-06-19T11:39:11;19.08;;;17.48;;
21519;SDS011;10921;53.614;9.882;2023-06-19T11:41:39;16.75;;;15.38;;
21519;SDS011;10921;53.614;9.882;2023-06-19T11:44:07;17.02;;;15.52;;
21519;SDS011;10921;53.614;9.882;2023-06-19T11:46:37;18.20;;;16.60;;
21519;SDS011;10921;53.614;9.882;2023-06-19T11:49:13;17.52;;;16.23;;
21519;SDS011;10921;53.614;9.882;2023-06-19T11:51:43;18.60;;;16.75;;
21519;SDS011;10921;53.614;9.882;2023-06-19T11:54:10;18.10;;;16.33;;
21519;SDS011;10921;53.614;9.882;2023-06-19T11:56:38;17.73;;;16.35;;
21519;SDS011;10921;53.614;9.882;2023-06-19T11:59:06;17.52;;;16.13;;
21519;SDS011;10921;53.614;9.882;2023-06-19T12:01:33;17.58;;;16.13;;
21519;SDS011;10921;53.614;9.882;2023-06-19T12:04:01;16.23;;;14.82;;
21519;SDS011;10921;53.614;9.882;2023-06-19T12:06:29;15.98;;;14.45;;
21519;SDS011;10921;53.614;9.882;2023-06-19T12:08:56;16.02;;;14.57;;
21519;SDS011;10921;53.614;9.882;2023-06-19T12:11:22;17.35;;;15.65;;
21519;SDS011;10921;53.614;9.882;2023-06-19T12:13:50;17.48;;;15.52;;
21519;SDS011;10921;53.614;9.882;2023-06-19T12:16:19;18.38;;;16.65;;
21519;SDS011;10921;53.614;9.882;2023-06-19T12:18:46;16.92;;;15.43;;
21519;SDS011;10921;53.614;9.882;2023-06-19T12:21:12;18.05;;;16.48;;
21519;SDS011;10921;53.614;9.882;2023-06-19T12:23:58;16.75;;;15.25;;
21519;SDS011;10921;53.614;9.882;2023-06-19T12:26:25;17.73;;;15.98;;
21519;SDS011;10921;53.614;9.882;2023-06-19T12:28:52;17.15;;;15.57;;
21519;SDS011;10921;53.614;9.882;2023-06-19T12:31:19;17.40;;;16.10;;
21519;SDS011;10921;53.614;9.882;2023-06-19T12:33:46;17.77;;;15.75;;
21519;SDS011;10921;53.614;9.882;2023-06-19T12:36:14;18.17;;;16.13;;
21519;SDS011;10921;53.614;9.882;2023-06-19T12:38:41;17.05;;;15.48;;
21519;SDS011;10921;53.614;9.882;2023-06-19T12:41:07;16.95;;;15.57;;
21519;SDS011;10921;53.614;9.882;2023-06-19T12:43:34;16.52;;;15.20;;
21519;SDS011;10921;53.614;9.882;2023-06-19T12:46:00;17.35;;;15.82;;
21519;SDS011;10921;53.614;9.882;2023-06-19T12:48:27;18.40;;;16.55;;
21519;SDS011;10921;53.614;9.882;2023-06-19T12:50:54;17.42;;;15.85;;
21519;SDS011;10921;53.614;9.882;2023-06-19T12:53:21;18.58;;;16.80;;
21519;SDS011;10921;53.614;9.882;2023-06-19T12:55:52;18.80;;;17.02;;
21519;SDS011;10921;53.614;9.882;2023-06-19T12:58:27;19.77;;;17.05;;
21519;SDS011;10921;53.614;9.882;2023-06-19T13:00:54;18.88;;;17.27;;
21519;SDS011;10921;53.614;9.882;2023-06-19T13:03:20;18.70;;;17.10;;
21519;SDS011;10921;53.614;9.882;2023-06-19T13:05:47;19.88;;;18.05;;
21519;SDS011;10921;53.614;9.882;2023-06-19T13:08:13;19.00;;;17.30;;
21519;SDS011;10921;53.614;9.882;2023-06-19T13:10:41;16.88;;;15.65;;
21519;SDS011;10921;53.614;9.882;2023-06-19T13:13:08;18.83;;;16.77;;
21519;SDS011;10921;53.614;9.882;2023-06-19T13:15:36;17.17;;;15.57;;
21519;SDS011;10921;53.614;9.882;2023-06-19T13:18:03;17.23;;;15.48;;
21519;SDS011;10921;53.614;9.882;2023-06-19T13:20:30;15.60;;;14.32;;
21519;SDS011;10921;53.614;9.882;2023-06-19T13:22:56;17.67;;;16.15;;
21519;SDS011;10921;53.614;9.882;2023-06-19T13:25:23;17.77;;;15.82;;
21519;SDS011;10921;53.614;9.882;2023-06-19T13:27:49;18.42;;;16.90;;
21519;SDS011;10921;53.614;9.882;2023-06-19T13:30:16;16.20;;;14.82;;
21519;SDS011;10921;53.614;9.882;2023-06-19T13:32:42;15.45;;;14.35;;
21519;SDS011;10921;53.614;9.882;2023-06-19T13:35:09;16.67;;;15.32;;
21519;SDS011;10921;53.614;9.882;2023-06-19T13:37:36;17.90;;;16.33;;
21519;SDS011;10921;53.614;9.882;2023-06-19T13:40:07;17.90;;;16.40;;
21519;SDS011;10921;53.614;9.882;2023-06-19T13:42:34;17.45;;;15.98;;
21519;SDS011;10921;53.614;9.882;2023-06-19T13:45:04;15.13;;;13.93;;
21519;SDS011;10921;53.614;9.882;2023-06-19T13:47:31;18.33;;;14.45;;
21519;SDS011;10921;53.614;9.882;2023-06-19T13:49:58;14.68;;;13.48;;
21519;SDS011;10921;53.614;9.882;2023-06-19T13:52:24;15.38;;;13.85;;
21519;SDS011;10921;53.614;9.882;2023-06-19T13:54:51;15.88;;;14.23;;
21519;SDS011;10921;53.614;9.882;2023-06-19T13:57:20;14.75;;;13.45;;
21519;SDS011;10921;53.614;9.882;2023-06-19T13:59:47;16.50;;;15.13;;
21519;SDS011;10921;53.614;9.882;2023-06-19T14:02:15;16.10;;;14.23;;
21519;SDS011;10921;53.614;9.882;2023-06-19T14:04:42;17.83;;;16.02;;
21519;SDS011;10921;53.614;9.882;2023-06-19T14:07:09;14.90;;;13.60;;
21519;SDS011;10921;53.614;9.882;2023-06-19T14:09:36;16.30;;;15.00;;
21519;SDS011;10921;53.614;9.882;2023-06-19T14:12:03;13.20;;;12.15;;
21519;SDS011;10921;53.614;9.882;2023-06-19T14:14:30;14.98;;;13.60;;
21519;SDS011;10921;53.614;9.882;2023-06-19T14:16:57;14.95;;;13.43;;
21519;SDS011;10921;53.614;9.882;2023-06-19T14:19:24;14.73;;;13.52;;
21519;SDS011;10921;53.614;9.882;2023-06-19T14:21:51;18.08;;;14.23;;
21519;SDS011;10921;53.614;9.882;2023-06-19T14:24:17;14.70;;;13.48;;
21519;SDS011;10921;53.614;9.882;2023-06-19T14:26:44;15.68;;;13.93;;
21519;SDS011;10921;53.614;9.882;2023-06-19T14:29:10;15.25;;;13.95;;